createdAt,value
2022-10-11T00:02:18.155Z,60.23
2022-10-11T00:04:48.776Z,59.77
2022-10-11T00:07:18.865Z,59.67
2022-10-11T00:09:48.265Z,60.41
2022-10-11T00:12:17.248Z,60.21
2022-10-11T00:14:45.572Z,60.28
2022-10-11T00:17:17.502Z,60.35
2022-10-11T00:20:00.078Z,59.14
2022-10-11T00:22:42.902Z,58.87
2022-10-11T00:25:27.184Z,58.86
2022-10-11T00:28:09.027Z,58.66
2022-10-11T00:30:50.944Z,59.29
2022-10-11T00:33:35.952Z,59.20
2022-10-11T00:36:19.235Z,59.56
2022-10-11T00:39:02.254Z,59.20
2022-10-11T00:41:42.807Z,59.72
2022-10-11T00:44:26.975Z,59.79
2022-10-11T00:47:10.745Z,59.56
2022-10-11T00:49:54.474Z,59.58
2022-10-11T00:52:36.306Z,60.24
2022-10-11T00:55:30.120Z,59.27
2022-10-11T00:58:14.444Z,59.26
2022-10-11T01:00:55.577Z,59.01
2022-10-11T01:03:36.438Z,59.23
2022-10-11T01:06:20.226Z,59.57
2022-10-11T01:09:04.978Z,60.29
2022-10-11T01:11:45.922Z,60.27
2022-10-11T01:14:51.303Z,60.27
2022-10-11T01:17:34.226Z,60.32
2022-10-11T01:20:19.545Z,60.88
2022-10-11T01:23:26.590Z,61.23
2022-10-11T01:26:23.656Z,61.31
2022-10-11T01:29:08.640Z,61.21
2022-10-11T01:31:51.392Z,61.72
2022-10-11T01:34:34.176Z,62.03
2022-10-11T01:37:18.852Z,62.12
2022-10-11T01:40:03.542Z,62.12
2022-10-11T01:42:46.417Z,61.95
2022-10-11T01:45:30.296Z,62.25
2022-10-11T01:48:14.206Z,61.95
2022-10-11T01:50:56.367Z,62.49
2022-10-11T01:53:50.027Z,62.43
2022-10-11T01:56:35.455Z,62.71
2022-10-11T01:59:21.392Z,62.00
2022-10-11T02:02:05.398Z,62.35
2022-10-11T02:04:50.861Z,63.15
2022-10-11T02:07:32.864Z,62.12
2022-10-11T02:10:16.940Z,62.36
2022-10-11T02:13:10.081Z,62.56
2022-10-11T02:15:54.646Z,62.13
2022-10-11T02:18:36.812Z,62.46
2022-10-11T02:21:20.246Z,62.09
2022-10-11T02:24:05.031Z,62.09
2022-10-11T02:26:48.468Z,62.01
2022-10-11T02:29:46.286Z,61.85
2022-10-11T02:32:30.288Z,62.45
2022-10-11T02:35:14.799Z,62.42
2022-10-11T02:37:57.793Z,62.65
2022-10-11T02:40:49.359Z,62.71
2022-10-11T02:43:31.827Z,63.43
2022-10-11T02:46:20.165Z,64.18
2022-10-11T02:49:09.650Z,63.10
2022-10-11T02:51:51.289Z,62.87
2022-10-11T02:54:35.720Z,63.10
2022-10-11T02:57:19.191Z,63.54
2022-10-11T03:00:03.442Z,62.85
2022-10-11T03:02:48.215Z,63.41
2022-10-11T03:05:37.494Z,63.09
2022-10-11T03:08:29.683Z,63.87
2022-10-11T03:11:18.023Z,63.17
2022-10-11T03:14:03.414Z,62.99
2022-10-11T03:16:43.281Z,63.63
2022-10-11T03:19:26.251Z,63.58
2022-10-11T03:22:07.868Z,63.09
2022-10-11T03:24:51.014Z,63.17
2022-10-11T03:27:32.579Z,63.20
2022-10-11T03:30:18.395Z,63.56
2022-10-11T03:33:12.635Z,62.99
2022-10-11T03:35:55.510Z,63.79
2022-10-11T03:38:38.589Z,63.48
2022-10-11T03:41:21.199Z,63.73
2022-10-11T03:44:04.820Z,63.82
2022-10-11T03:46:47.312Z,64.37
2022-10-11T03:49:30.851Z,64.34
2022-10-11T03:52:19.589Z,63.78
2022-10-11T03:55:16.570Z,63.98
2022-10-11T03:57:58.453Z,63.67
2022-10-11T04:00:40.545Z,63.74
2022-10-11T04:03:25.951Z,63.52
2022-10-11T04:06:11.937Z,63.99
2022-10-11T04:08:54.179Z,64.38
2022-10-11T04:11:55.112Z,63.57
2022-10-11T04:14:42.400Z,63.50
2022-10-11T04:17:23.883Z,63.91
2022-10-11T04:20:07.725Z,62.98
2022-10-11T04:22:48.610Z,63.53
2022-10-11T04:25:30.983Z,63.52
2022-10-11T04:28:14.072Z,63.73
2022-10-11T04:30:55.423Z,63.81
2022-10-11T04:33:36.854Z,63.47
2022-10-11T04:36:18.728Z,63.66
2022-10-11T04:39:02.294Z,63.55
2022-10-11T04:41:44.849Z,63.54
2022-10-11T04:44:29.815Z,63.64
2022-10-11T04:47:23.676Z,64.23
2022-10-11T04:50:06.157Z,63.64
2022-10-11T04:52:48.101Z,63.29
2022-10-11T04:55:30.940Z,64.16
2022-10-11T04:58:10.530Z,64.01
2022-10-11T05:00:40.697Z,64.01
2022-10-11T05:03:25.991Z,64.17
2022-10-11T05:06:10.743Z,64.39
2022-10-11T05:08:59.674Z,64.06
2022-10-11T05:11:42.924Z,64.21
2022-10-11T05:14:26.764Z,64.08
2022-10-11T05:17:08.560Z,64.47
2022-10-11T05:19:50.868Z,64.93
2022-10-11T05:22:32.871Z,64.77
2022-10-11T05:25:16.066Z,64.48
2022-10-11T05:27:56.697Z,64.82
2022-10-11T05:30:43.199Z,64.85
2022-10-11T05:33:25.601Z,65.26
2022-10-11T05:36:15.189Z,64.94
2022-10-11T05:39:04.472Z,64.75
2022-10-11T05:41:53.517Z,65.41
2022-10-11T05:44:39.076Z,64.10
2022-10-11T05:47:20.723Z,63.58
2022-10-11T05:50:06.042Z,64.17
2022-10-11T05:52:51.531Z,63.68
2022-10-11T06:00:57.203Z,64.26
2022-10-11T06:03:40.158Z,63.58
2022-10-11T06:06:21.986Z,63.65
2022-10-11T06:09:05.728Z,63.95
2022-10-11T06:12:06.175Z,63.94
2022-10-11T06:14:56.855Z,63.91
2022-10-11T06:17:48.966Z,63.45
2022-10-11T06:20:32.051Z,63.50
2022-10-11T06:23:35.265Z,64.29
2022-10-11T06:26:30.143Z,63.89
2022-10-11T06:29:25.749Z,63.24
2022-10-11T06:32:15.199Z,63.87
2022-10-11T06:35:13.022Z,62.50
2022-10-11T06:38:00.537Z,60.78
2022-10-11T06:41:07.044Z,61.77
2022-10-11T06:44:17.275Z,58.08
2022-10-11T06:47:11.544Z,55.85
2022-10-11T06:50:12.830Z,57.06
2022-10-11T06:53:14.203Z,56.23
2022-10-11T06:56:21.261Z,57.36
2022-10-11T06:59:30.570Z,57.58
2022-10-11T07:02:24.251Z,55.97
2022-10-11T07:05:19.528Z,56.01
2022-10-11T07:08:11.472Z,55.24
2022-10-11T07:10:53.965Z,55.24
2022-10-11T07:13:49.225Z,53.41
2022-10-11T07:16:36.669Z,54.36
2022-10-11T07:19:38.058Z,53.62
2022-10-11T07:23:38.279Z,54.00
2022-10-11T07:37:03.395Z,54.86
2022-10-11T07:40:00.322Z,55.01
2022-10-11T07:43:01.296Z,54.05
2022-10-11T07:45:55.717Z,54.49
2022-10-11T07:48:44.965Z,54.06
2022-10-11T07:51:44.334Z,54.49
2022-10-11T07:54:43.458Z,55.23
2022-10-11T07:57:34.910Z,53.80
2022-10-11T08:00:37.298Z,53.22
2022-10-11T08:03:37.668Z,52.14
2022-10-11T08:06:48.671Z,50.79
2022-10-11T08:09:49.431Z,51.72
2022-10-11T08:12:32.458Z,51.72
2022-10-11T08:15:27.397Z,54.10
2022-10-11T08:18:28.759Z,51.53
2022-10-11T08:21:34.636Z,50.94
2022-10-11T08:24:40.601Z,51.38
2022-10-11T08:28:01.837Z,52.44
2022-10-11T08:31:42.885Z,52.43
2022-10-11T08:46:07.961Z,52.95
2022-10-11T08:52:47.391Z,53.77
2022-10-11T08:55:41.767Z,54.12
2022-10-11T08:58:46.317Z,54.24
2022-10-11T09:02:02.851Z,53.41
2022-10-11T09:05:21.801Z,53.66
2022-10-11T09:08:41.570Z,53.75
2022-10-11T09:15:24.768Z,54.26
2022-10-11T09:18:28.601Z,54.87
2022-10-11T09:29:32.426Z,54.01
2022-10-11T09:33:05.757Z,52.43
2022-10-11T09:36:27.692Z,54.00
2022-10-11T09:43:02.116Z,53.70
2022-10-11T09:51:45.134Z,53.44
2022-10-11T13:13:44.483Z,46.64
2022-10-11T13:21:23.780Z,43.71
2022-10-11T13:28:51.904Z,45.29
2022-10-11T14:02:30.859Z,47.11
2022-10-11T14:13:55.676Z,46.17
2022-10-11T14:25:04.006Z,47.47
2022-10-11T14:28:14.103Z,48.03
2022-10-11T14:31:23.731Z,48.65
2022-10-11T14:34:58.937Z,48.51
2022-10-11T14:38:25.075Z,48.78
2022-10-11T14:45:21.780Z,49.92
2022-10-11T14:48:42.950Z,50.36
2022-10-11T14:58:15.885Z,52.04
2022-10-11T15:01:14.798Z,52.36
2022-10-11T15:03:59.446Z,52.44
2022-10-11T15:06:59.595Z,53.20
2022-10-11T15:10:06.740Z,53.80
2022-10-11T15:12:59.846Z,54.47
2022-10-11T15:15:46.211Z,54.73
2022-10-11T15:18:32.977Z,54.56
2022-10-11T15:21:13.211Z,55.03
2022-10-11T15:26:50.746Z,55.27
2022-10-11T15:29:24.803Z,54.69
2022-10-11T15:32:06.640Z,55.16
2022-10-11T15:34:38.278Z,55.28
2022-10-11T15:37:18.733Z,54.61
2022-10-11T15:40:03.252Z,55.61
2022-10-11T15:42:44.474Z,56.19
2022-10-11T15:45:18.746Z,56.83
2022-10-11T15:48:08.138Z,56.90
2022-10-11T15:50:41.504Z,57.02
2022-10-11T15:53:34.591Z,55.72
2022-10-11T15:56:19.157Z,56.55
2022-10-11T15:58:58.851Z,56.80
2022-10-11T16:01:28.964Z,57.16
2022-10-11T16:04:04.851Z,57.39
2022-10-11T16:06:51.228Z,57.83
2022-10-11T16:09:34.058Z,57.61
2022-10-11T16:12:13.669Z,57.39
2022-10-11T16:14:51.154Z,57.56
2022-10-11T16:20:15.880Z,58.02
2022-10-11T16:22:45.199Z,58.71
2022-10-11T16:25:23.308Z,59.04
2022-10-11T16:27:59.400Z,59.58
2022-10-11T16:30:39.233Z,59.78
2022-10-11T16:33:11.696Z,60.21
2022-10-11T16:35:41.983Z,60.56
2022-10-11T16:38:11.304Z,60.61
2022-10-11T16:40:42.363Z,60.71
2022-10-11T16:43:11.560Z,61.01
2022-10-11T16:45:49.623Z,61.38
2022-10-11T16:48:22.520Z,61.39
2022-10-11T16:50:52.782Z,61.28
2022-10-11T16:53:31.788Z,60.99
2022-10-11T16:56:10.446Z,61.33
2022-10-11T16:58:39.680Z,61.68
2022-10-11T17:01:19.110Z,61.48
2022-10-11T17:03:52.189Z,61.42
2022-10-11T17:06:22.280Z,61.20
2022-10-11T17:08:54.572Z,61.97
2022-10-11T17:11:24.782Z,62.02
2022-10-11T17:13:57.675Z,61.23
2022-10-11T17:16:28.535Z,61.74
2022-10-11T17:18:58.861Z,62.02
2022-10-11T17:21:32.800Z,62.61
2022-10-11T17:24:06.157Z,62.89
2022-10-11T17:26:38.147Z,63.55
2022-10-11T17:29:07.630Z,63.97
2022-10-11T17:31:49.213Z,63.26
2022-10-11T17:34:30.866Z,63.80
2022-10-11T17:37:07.840Z,63.20
2022-10-11T17:39:37.748Z,63.77
2022-10-11T17:42:11.048Z,63.94
2022-10-11T17:44:42.791Z,64.30
2022-10-11T17:47:22.513Z,64.34
2022-10-11T17:49:52.292Z,63.70
2022-10-11T17:52:22.926Z,63.63
2022-10-11T17:54:55.019Z,63.88
2022-10-11T17:57:24.379Z,63.69
2022-10-11T17:59:56.668Z,63.83
2022-10-11T18:02:27.614Z,63.50
2022-10-11T18:05:00.452Z,63.49
2022-10-11T18:07:37.735Z,63.68
2022-10-11T18:10:09.983Z,63.45
2022-10-11T18:12:41.807Z,63.20
2022-10-11T18:15:20.749Z,63.16
2022-10-11T18:18:03.348Z,63.08
2022-10-11T18:20:34.950Z,62.78
2022-10-11T18:23:17.817Z,63.17
2022-10-11T18:25:58.635Z,62.62
2022-10-11T18:28:33.824Z,62.53
2022-10-11T18:31:14.356Z,62.10
2022-10-11T18:34:00.005Z,62.01
2022-10-11T18:36:39.213Z,61.95
2022-10-11T18:39:10.208Z,61.72
2022-10-11T18:41:44.935Z,62.19
2022-10-11T18:44:21.689Z,62.46
2022-10-11T18:46:51.990Z,62.72
2022-10-11T18:49:25.115Z,61.51
2022-10-11T18:52:06.567Z,61.77
2022-10-11T18:54:59.826Z,62.59
2022-10-11T18:57:30.337Z,62.79
2022-10-11T19:00:11.709Z,62.34
2022-10-11T19:03:19.580Z,61.77
2022-10-11T19:06:03.713Z,61.55
2022-10-11T19:08:36.467Z,61.67
2022-10-11T19:11:13.362Z,62.32
2022-10-11T19:13:43.116Z,62.08
2022-10-11T19:16:12.913Z,62.06
2022-10-11T19:18:52.677Z,62.37
2022-10-11T19:21:29.497Z,62.29
2022-10-11T19:24:00.701Z,62.64
2022-10-11T19:26:36.810Z,63.64
2022-10-11T19:29:07.279Z,63.70
2022-10-11T19:31:41.325Z,63.95
2022-10-11T19:34:13.684Z,64.24
2022-10-11T19:36:43.378Z,63.88
2022-10-11T19:39:13.682Z,64.10
2022-10-11T19:41:43.567Z,63.66
2022-10-11T19:44:16.225Z,63.68
2022-10-11T19:46:51.387Z,63.89
2022-10-11T19:49:27.064Z,63.79
2022-10-11T19:52:06.481Z,63.97
2022-10-11T19:54:42.180Z,63.16
2022-10-11T19:57:11.141Z,62.98
2022-10-11T19:59:44.026Z,62.75
2022-10-11T20:02:13.758Z,63.26
2022-10-11T20:04:52.316Z,62.85
2022-10-11T20:07:31.500Z,62.85
2022-10-11T20:10:12.003Z,62.25
2022-10-11T20:13:02.927Z,62.08
2022-10-11T20:15:40.236Z,62.78
2022-10-11T20:18:17.699Z,63.38
2022-10-11T20:20:55.774Z,63.77
2022-10-11T20:23:48.160Z,63.08
2022-10-11T20:30:33.507Z,63.21
2022-10-11T20:33:02.888Z,63.00
2022-10-11T20:35:33.829Z,62.96
2022-10-11T20:38:04.267Z,62.98
2022-10-11T20:40:41.039Z,63.69
2022-10-11T20:43:10.530Z,63.12
2022-10-11T20:45:43.572Z,63.25
2022-10-11T20:48:22.587Z,63.35
2022-10-11T20:50:53.330Z,62.55
2022-10-11T20:54:11.563Z,62.51
2022-10-11T20:57:40.527Z,62.94
2022-10-11T21:00:31.438Z,62.94
2022-10-11T21:03:08.915Z,63.55
2022-10-11T21:05:38.820Z,63.44
2022-10-11T21:08:16.355Z,63.91
2022-10-11T21:11:14.013Z,64.09
2022-10-11T21:13:43.413Z,64.57
2022-10-11T21:16:18.892Z,64.42
2022-10-11T21:19:26.870Z,64.08
2022-10-11T21:22:04.157Z,64.55
2022-10-11T21:24:33.567Z,64.68
2022-10-11T21:27:02.175Z,64.57
2022-10-11T21:29:31.724Z,64.53
2022-10-11T21:32:04.491Z,64.82
2022-10-11T21:34:35.578Z,64.86
2022-10-11T21:37:04.955Z,65.42
2022-10-11T21:39:34.086Z,65.63
2022-10-11T21:42:11.103Z,65.57
2022-10-11T21:44:44.353Z,66.02
2022-10-11T21:47:13.906Z,66.11
2022-10-11T21:49:52.802Z,65.95
2022-10-11T21:52:22.276Z,65.74
2022-10-11T21:54:55.071Z,65.68
2022-10-11T21:57:24.699Z,66.35
2022-10-11T22:00:02.929Z,65.83
2022-10-11T22:02:52.005Z,65.99
2022-10-11T22:05:26.137Z,65.92
2022-10-11T22:07:59.522Z,65.77
2022-10-11T22:10:28.710Z,65.48
2022-10-11T22:12:58.968Z,66.38
2022-10-11T22:15:28.181Z,66.48
2022-10-11T22:18:00.480Z,66.47
2022-10-11T22:20:35.099Z,66.29
2022-10-11T22:23:04.969Z,66.33
2022-10-11T22:25:35.463Z,66.66
2022-10-11T22:28:09.009Z,66.55
2022-10-11T22:30:38.092Z,66.60
2022-10-11T22:33:14.269Z,66.67
2022-10-11T22:35:46.932Z,66.21
2022-10-11T22:38:16.224Z,66.65
2022-10-11T22:40:50.647Z,66.25
2022-10-11T22:43:20.240Z,66.15
2022-10-11T22:45:52.117Z,66.72
2022-10-11T22:48:21.839Z,66.91
2022-10-11T22:50:56.248Z,66.50
2022-10-11T22:53:25.328Z,66.03
2022-10-11T22:55:54.432Z,66.88
2022-10-11T22:58:23.127Z,66.71
2022-10-11T23:00:54.175Z,66.75
2022-10-11T23:03:23.541Z,66.71
2022-10-11T23:05:58.667Z,66.72
2022-10-11T23:08:27.908Z,66.43
2022-10-11T23:11:03.446Z,66.69
2022-10-11T23:13:34.930Z,67.52
2022-10-11T23:16:07.114Z,67.00
2022-10-11T23:18:40.531Z,67.26
2022-10-11T23:21:11.130Z,67.33
2022-10-11T23:23:41.421Z,67.02
2022-10-11T23:26:12.265Z,67.47
2022-10-11T23:28:46.117Z,67.83
2022-10-11T23:31:16.928Z,67.67
2022-10-11T23:33:46.997Z,67.67
2022-10-11T23:36:17.614Z,67.11
2022-10-11T23:38:49.067Z,67.32
2022-10-11T23:41:17.621Z,67.80
2022-10-11T23:43:49.628Z,67.39
2022-10-11T23:46:18.371Z,67.50
2022-10-11T23:48:50.757Z,67.25
2022-10-11T23:51:21.242Z,68.00
2022-10-11T23:53:52.374Z,68.83
2022-10-11T23:56:21.440Z,68.33
2022-10-11T23:58:55.188Z,68.10
